Data for 11/09/2018

Time Sea-Level Adjusted Pressure Absolute Pressure Temperature Relative Humidity Dew Point   
(mb) (inHg) (mb) (inHg) (C) (F) (%) (C) (F)
00:05 1029 30.39 858 25.34 -6.2 20.8 73 -10.2 13.6
00:10 1029 30.39 858 25.34 -6.2 20.8 73 -10.3 13.5
00:15 1029 30.39 858 25.34 -6.2 20.9 73 -10.3 13.5
00:20 1029 30.39 858 25.34 -6.1 21.1 73 -10.2 13.6
00:25 1029 30.39 858 25.34 -6.1 21.1 73 -10.2 13.6
00:30 1029 30.39 858 25.34 -6.2 20.9 73 -10.3 13.4
00:35 1029 30.39 858 25.34 -6.3 20.7 73 -10.4 13.3
00:40 1029 30.39 858 25.34 -6.2 20.8 73 -10.3 13.4
00:45 1029 30.39 858 25.34 -6.3 20.8 73 -10.3 13.5
00:50 1029 30.39 858 25.34 -6.4 20.6 74 -10.3 13.4
00:55 1029 30.39 858 25.34 -6.5 20.4 74 -10.4 13.2
01:00 1029 30.39 858 25.34 -6.5 20.2 74 -10.5 13.1
01:05 1029 30.39 858 25.34 -6.5 20.2 73 -10.5 13
01:10 1029 30.39 858 25.34 -6.3 20.7 71 -10.7 12.8
01:15 1029 30.39 858 25.34 -6.3 20.6 75 -10 13.9
01:20 1029 30.39 858 25.34 -6.2 20.9 73 -10.2 13.7
01:25 1029 30.39 858 25.34 -6 21.3 73 -10.1 13.8
01:30 1029 30.39 858 25.34 -6.1 21.1 75 -9.9 14.2
01:35 1029 30.39 858 25.34 -6 21.2 72 -10.2 13.6
01:40 1029 30.39 858 25.34 -5.9 21.5 72 -10.2 13.7
01:45 1029 30.39 858 25.34 -5.9 21.4 72 -10.2 13.6
01:50 1029 30.39 858 25.34 -6.1 21 72 -10.3 13.4
01:55 1029 30.39 858 25.34 -6.3 20.6 72 -10.5 13
02:00 1028 30.36 858 25.34 -6.8 19.8 73 -10.9 12.4
02:05 1028 30.36 858 25.34 -7.1 19.3 74 -11 12.2
02:10 1028 30.36 858 25.34 -7.1 19.2 74 -11 12.2
02:15 1028 30.36 858 25.34 -6.9 19.5 73 -11 12.2
02:20 1028 30.36 857 25.31 -6.9 19.6 74 -10.9 12.4
02:25 1028 30.36 858 25.34 -7 19.5 74 -10.9 12.4
02:30 1028 30.36 858 25.34 -6.9 19.6 72 -11.1 12
02:35 1028 30.36 857 25.31 -7 19.4 73 -11.1 12
02:40 1028 30.36 857 25.31 -7.1 19.2 74 -11.1 12
02:45 1028 30.36 857 25.31 -7.2 19.1 74 -11.1 12
02:50 1028 30.36 857 25.31 -7.1 19.3 73 -11.2 11.9
02:55 1028 30.36 857 25.31 -7.1 19.2 72 -11.3 11.7
03:00 1028 30.36 857 25.31 -7.3 18.9 73 -11.3 11.6
03:05 1028 30.36 857 25.31 -7.4 18.7 74 -11.2 11.8
03:10 1028 30.36 857 25.31 -7.4 18.8 73 -11.3 11.6
03:15 1028 30.36 857 25.31 -7.2 19 72 -11.4 11.5
03:20 1028 30.36 857 25.31 -7.2 19 73 -11.2 11.8
03:25 1028 30.36 857 25.31 -7.2 19.1 72 -11.3 11.6
03:30 1028 30.36 857 25.31 -7.2 19.1 73 -11.2 11.8
03:35 1028 30.36 857 25.31 -7.2 19 73 -11.3 11.6
03:40 1028 30.36 857 25.31 -7.4 18.6 73 -11.5 11.2
03:45 1028 30.36 857 25.31 -7.6 18.4 74 -11.5 11.3
03:50 1028 30.36 857 25.31 -7.5 18.5 73 -11.5 11.3
03:55 1028 30.36 857 25.31 -7.5 18.5 73 -11.5 11.3
04:00 1028 30.36 857 25.31 -7.5 18.5 73 -11.5 11.3
04:05 1028 30.36 857 25.31 -7.7 18.1 73 -11.7 10.9
04:10 1028 30.36 857 25.31 -7.9 17.7 74 -11.8 10.7
04:15 1027 30.33 857 25.31 -8 17.7 74 -11.9 10.7
04:20 1027 30.33 857 25.31 -8.1 17.5 74 -11.9 10.6
04:25 1027 30.33 857 25.31 -8.3 17.1 74 -12 10.3
04:30 1027 30.33 857 25.31 -8.2 17.2 75 -12 10.5
04:35 1027 30.33 857 25.31 -8.2 17.2 74 -12.1 10.2
04:40 1027 30.33 857 25.31 -8.1 17.4 74 -12.1 10.3
04:45 1027 30.33 857 25.31 -8.2 17.3 74 -12.1 10.3
04:50 1027 30.33 857 25.31 -8.3 17.2 74 -12.1 10.2
04:55 1027 30.33 857 25.31 -8.2 17.2 74 -12.1 10.3
05:00 1027 30.33 857 25.31 -8.4 16.8 75 -12.2 10.1
05:05 1027 30.33 857 25.31 -8.6 16.6 75 -12.2 10
05:10 1027 30.33 857 25.31 -8.6 16.6 75 -12.2 10
05:15 1027 30.33 857 25.31 -8.6 16.6 75 -12.3 9.9
05:20 1027 30.33 857 25.31 -8.5 16.6 75 -12.3 9.9
05:25 1027 30.33 857 25.31 -8.6 16.6 75 -12.2 10
05:30 1027 30.33 857 25.31 -8.6 16.5 75 -12.3 9.9
05:35 1027 30.33 856 25.28 -8.5 16.7 75 -12.3 9.9
05:40 1027 30.33 856 25.28 -8.4 16.9 75 -12 10.4
05:45 1027 30.33 856 25.28 -8.4 16.9 76 -11.8 10.7
05:50 1027 30.33 856 25.28 -8.6 16.6 76 -12.1 10.1
05:55 1027 30.33 856 25.28 -8.5 16.8 76 -12 10.4
06:00 1027 30.33 856 25.28 -8.6 16.6 76 -12.1 10.3
06:05 1027 30.33 856 25.28 -8.5 16.7 76 -12.1 10.3
06:10 1027 30.33 856 25.28 -8.4 17 77 -11.8 10.8
06:15 1027 30.33 856 25.28 -8.2 17.2 76 -11.7 11
06:20 1027 30.33 856 25.28 -8.2 17.3 76 -11.7 10.9
06:25 1027 30.33 856 25.28 -7.7 18.2 72 -12 10.4
06:30 1027 30.33 856 25.28 -7.4 18.8 71 -11.8 10.8
06:35 1027 30.33 856 25.28 -7.7 18.2 72 -11.9 10.6
06:40 1027 30.33 856 25.28 -7.7 18.2 71 -12.1 10.3
06:45 1027 30.33 856 25.28 -7.5 18.4 71 -12 10.4
06:50 1027 30.33 856 25.28 -7.4 18.6 71 -11.8 10.7
06:55 1027 30.33 856 25.28 -7.5 18.4 71 -11.9 10.6
07:00 1027 30.33 856 25.28 -7.7 18.2 72 -11.8 10.7
07:05 1027 30.33 856 25.28 -7.9 17.8 75 -11.6 11.1
07:10 1027 30.33 856 25.28 -8.1 17.5 76 -11.6 11.1
07:15 1027 30.33 856 25.28 -8.2 17.3 75 -11.8 10.8
07:20 1027 30.33 856 25.28 -8.2 17.3 74 -12 10.4
07:25 1027 30.33 856 25.28 -8.3 17 75 -12 10.4
07:30 1027 30.33 856 25.28 -8.5 16.8 75 -12.2 10.1
07:35 1027 30.33 856 25.28 -8.5 16.6 76 -12.1 10.2
07:40 1027 30.33 856 25.28 -8.2 17.3 75 -11.8 10.7
07:45 1027 30.33 856 25.28 -8 17.7 75 -11.7 11
07:50 1027 30.33 856 25.28 -7.9 17.8 75 -11.5 11.3
07:55 1027 30.33 856 25.28 -7.7 18.1 75 -11.5 11.4
08:00 1027 30.33 856 25.28 -8 17.6 75 -11.7 10.9
08:05 1027 30.33 856 25.28 -8.1 17.4 74 -11.9 10.6
08:10 1027 30.33 856 25.28 -8 17.6 74 -11.8 10.7
08:15 1027 30.33 856 25.28 -7.4 18.6 72 -11.6 11.1
08:20 1027 30.33 856 25.28 -6.9 19.5 71 -11.3 11.7
08:25 1026 30.3 856 25.28 -6.8 19.7 70 -11.4 11.5
08:30 1026 30.3 856 25.28 -6.6 20.1 70 -11.2 11.8
08:35 1026 30.3 856 25.28 -6.6 20.1 70 -11.2 11.8
08:40 1026 30.3 856 25.28 -6.5 20.3 69 -11.2 11.8
08:45 1026 30.3 856 25.28 -6.5 20.4 70 -11.1 12
08:50 1026 30.3 856 25.28 -6.7 19.9 72 -11 12.1
08:55 1026 30.3 856 25.28 -6.9 19.5 72 -11.2 11.9
09:00 1026 30.3 855 25.25 -6.7 20 70 -11.3 11.7
09:05 1026 30.3 855 25.25 -6.2 20.9 69 -11 12.2
09:10 1026 30.3 855 25.25 -5.5 22.1 68 -10.6 13
09:15 1026 30.3 855 25.25 -4.8 23.4 66 -10.1 13.8
09:20 1026 30.3 855 25.25 -4.4 24.1 64 -10.2 13.6
09:25 1026 30.3 855 25.25 -4.2 24.5 64 -10 14
09:30 1026 30.3 855 25.25 -3.9 25 64 -9.8 14.4
09:35 1026 30.3 855 25.25 -3.3 26.1 60 -9.9 14.2
09:40 1026 30.3 855 25.25 -3 26.6 62 -9.4 15.1
09:45 1026 30.3 855 25.25 -2.6 27.3 57 -10 14
09:50 1026 30.3 855 25.25 -3 26.7 60 -9.7 14.6
09:55 1026 30.3 855 25.25 -2.9 26.9 59 -9.7 14.5
10:00 1026 30.3 855 25.25 -2.1 28.3 57 -9.4 15.1
10:05 1026 30.3 855 25.25 -2 28.4 55 -9.9 14.2
10:10 1026 30.3 855 25.25 -1.5 29.3 50 -10.5 13
10:15 1026 30.3 855 25.25 -1.6 29.2 49 -10.9 12.3
10:20 1026 30.3 855 25.25 -1.9 28.5 51 -10.8 12.6
10:25 1025 30.27 855 25.25 -1.9 28.6 52 -10.6 12.9
10:30 1025 30.27 854 25.22 -1.6 29 49 -11.1 12.1
10:35 1025 30.27 854 25.22 -1.1 30 44 -11.8 10.7
10:40 1025 30.27 854 25.22 -0.6 30.9 43 -11.7 10.9
10:45 1025 30.27 854 25.22 -0.5 31.2 45 -11 12.3
10:50 1025 30.27 854 25.22 0.5 32.8 38 -12.2 10.1
10:55 1025 30.27 854 25.22 0.4 32.6 44 -10.7 12.8
11:00 1025 30.27 854 25.22 0.8 33.4 42 -10.7 12.8
11:05 1025 30.27 854 25.22 1 33.7 47 -9.1 15.6
11:10 1025 30.27 854 25.22 0.7 33.3 48 -9.1 15.6
11:15 1025 30.27 854 25.22 0.5 33 49 -9 15.8
11:20 1025 30.27 854 25.22 0.7 33.3 49 -8.7 16.3
11:25 1024 30.24 854 25.22 0.9 33.7 51 -8.2 17.3
11:30 1024 30.24 854 25.22 0.4 32.7 50 -8.9 16.1
11:35 1024 30.24 853 25.19 0.1 32.2 50 -9 15.8
11:40 1024 30.24 853 25.19 0.4 32.8 49 -9.1 15.6
11:45 1024 30.24 853 25.19 0.3 32.5 48 -9.5 14.9
11:50 1024 30.24 853 25.19 0.7 33.3 47 -9.4 15.1
11:55 1024 30.24 853 25.19 1 33.8 49 -8.6 16.4
12:00 1024 30.24 853 25.19 0.5 33 49 -8.9 15.9
12:05 1024 30.24 853 25.19 1.4 34.5 46 -8.9 16
12:10 1024 30.24 853 25.19 1.2 34.2 52 -7.7 18.2
12:15 1023 30.21 853 25.19 1.1 34 48 -8.8 16.2
12:20 1023 30.21 853 25.19 1.6 34.8 42 -10 14
12:25 1023 30.21 852 25.16 1.8 35.3 44 -9.3 15.3
12:30 1023 30.21 852 25.16 1.8 35.3 43 -9.3 15.2
12:35 1023 30.21 852 25.16 1.4 34.6 45 -9.1 15.6
12:40 1023 30.21 852 25.16 1.2 34.1 45 -9.5 14.9
12:45 1023 30.21 852 25.16 1.6 34.9 43 -9.6 14.7
12:50 1022 30.18 852 25.16 2.3 36.2 42 -9.4 15.1
12:55 1022 30.18 852 25.16 2.4 36.4 39 -10.1 13.7
13:00 1022 30.18 852 25.16 2.1 35.8 40 -10.2 13.6
13:05 1022 30.18 851 25.13 2.2 36 39 -10.3 13.4
13:10 1022 30.18 851 25.13 2.5 36.5 43 -8.9 16
13:15 1022 30.18 851 25.13 2.1 35.8 48 -7.8 17.9
13:20 1022 30.18 851 25.13 2.2 36 46 -8.3 17
13:25 1022 30.18 851 25.13 2.1 35.9 43 -9.1 15.6
13:30 1022 30.18 851 25.13 1.6 34.9 47 -8.5 16.6
13:35 1022 30.18 851 25.13 2 35.6 42 -9.6 14.7
13:40 1021 30.15 851 25.13 2.7 36.8 42 -9.2 15.5
13:45 1021 30.15 851 25.13 3.5 38.2 38 -9.7 14.6
13:50 1021 30.15 851 25.13 4.1 39.4 40 -8.5 16.7
13:55 1021 30.15 850 25.1 3.6 38.5 34 -10.9 12.4
14:00 1021 30.15 850 25.1 2.6 36.7 35 -11.4 11.5
14:05 1021 30.15 850 25.1 2.3 36.1 34 -12.2 10
14:10 1021 30.15 850 25.1 2.1 35.8 35 -11.8 10.8
14:15 1021 30.15 850 25.1 2.4 36.3 36 -11.1 12
14:20 1021 30.15 850 25.1 2.9 37.1 41 -9 15.8
14:25 1021 30.15 850 25.1 2.5 36.5 51 -6.8 19.8
14:30 1021 30.15 850 25.1 1.7 35.1 52 -7 19.3
14:35 1021 30.15 850 25.1 1.5 34.7 52 -7.3 18.9
14:40 1020 30.12 850 25.1 1.5 34.7 51 -7.6 18.4
14:45 1020 30.12 850 25.1 1.5 34.8 54 -6.8 19.7
14:50 1020 30.12 849 25.07 1.5 34.7 54 -6.9 19.5
14:55 1020 30.12 849 25.07 1.7 35.1 52 -7.1 19.2
15:00 1020 30.12 849 25.07 1.4 34.5 54 -6.8 19.7
15:05 1020 30.12 849 25.07 1 33.9 56 -6.8 19.8
15:10 1020 30.12 849 25.07 1.1 34 55 -7 19.4
15:15 1020 30.12 849 25.07 1.1 34.1 57 -6.5 20.3
15:20 1020 30.12 849 25.07 1.1 34 58 -6.3 20.6
15:25 1019 30.09 849 25.07 1 33.7 60 -6 21.1
15:30 1019 30.09 849 25.07 0.6 33.1 59 -6.4 20.4
15:35 1019 30.09 848 25.04 0.6 33.1 56 -7.1 19.3
15:40 1019 30.09 848 25.04 0.8 33.4 56 -6.9 19.5
15:45 1019 30.09 848 25.04 1 33.7 57 -6.5 20.2
15:50 1019 30.09 848 25.04 0.9 33.5 56 -6.9 19.6
15:55 1019 30.09 848 25.04 0.6 33.1 58 -6.8 19.7
16:00 1019 30.09 848 25.04 0.5 32.9 58 -6.8 19.8
16:05 1018 30.06 848 25.04 0.4 32.6 59 -6.8 19.8
16:10 1018 30.06 848 25.04 0.1 32.2 58 -7.1 19.2
16:15 1018 30.06 847 25.01 -0 31.9 57 -7.5 18.5
16:20 1018 30.06 847 25.01 -0.1 31.8 57 -7.5 18.4
16:25 1018 30.06 847 25.01 0 32 57 -7.5 18.6
16:30 1018 30.06 847 25.01 0 32 58 -7.3 18.8
16:35 1018 30.06 847 25.01 0.3 32.5 50 -8.9 16
16:40 1018 30.06 847 25.01 0.7 33.2 51 -8.4 16.8
16:45 1018 30.06 847 25.01 1 33.8 37 -12.2 10.1
16:50 1018 30.06 847 25.01 1.3 34.3 52 -7.4 18.6
16:55 1018 30.06 847 25.01 1.3 34.3 59 -5.9 21.4
17:00 1018 30.06 847 25.01 0.9 33.6 60 -6 21.2
17:05 1018 30.06 847 25.01 0.5 32.9 63 -5.8 21.5
17:10 1017 30.03 847 25.01 0.2 32.4 62 -6.3 20.7
17:15 1017 30.03 846 24.98 0.2 32.3 63 -6.2 20.9
17:20 1017 30.03 846 24.98 0 32.1 61 -6.5 20.3
17:25 1017 30.03 846 24.98 -0.1 31.9 62 -6.5 20.3
17:30 1017 30.03 846 24.98 -0.2 31.7 65 -6 21.1
17:35 1017 30.03 846 24.98 -0.4 31.3 59 -7.5 18.4
17:40 1017 30.03 846 24.98 -0.1 31.8 57 -7.5 18.4
17:45 1017 30.03 846 24.98 0.3 32.5 55 -7.8 18
17:50 1017 30.03 846 24.98 0.6 33 60 -6.4 20.6
17:55 1017 30.03 846 24.98 0.1 32.1 61 -6.6 20.2
18:00 1017 30.03 846 24.98 -0.1 31.7 62 -6.6 20.1
18:05 1017 30.03 846 24.98 -0.1 31.8 63 -6.3 20.7
18:10 1017 30.03 846 24.98 0.2 32.3 62 -6.3 20.6
18:15 1017 30.03 846 24.98 0.3 32.5 66 -5.3 22.4
18:20 1017 30.03 846 24.98 -0.2 31.6 67 -5.7 21.8
18:25 1016 30 846 24.98 -0.4 31.2 65 -6.3 20.7
18:30 1016 30 846 24.98 -0.3 31.5 55 -8.1 17.4
18:35 1016 30 846 24.98 -0 32 61 -6.6 20.1
18:40 1016 30 846 24.98 -0.4 31.2 63 -6.7 19.9
18:45 1016 30 846 24.98 -0.4 31.2 60 -7.2 19
18:50 1016 30 846 24.98 -0.1 31.9 60 -6.9 19.6
18:55 1017 30.03 846 24.98 0.2 32.4 63 -6 21.3
19:00 1017 30.03 846 24.98 0.1 32.2 69 -5 23.1
19:05 1017 30.03 846 24.98 -0.2 31.6 70 -5 22.9
19:10 1017 30.03 846 24.98 -0.1 31.7 70 -4.9 23.1
19:15 1017 30.03 846 24.98 -0.2 31.6 68 -5.4 22.3
19:20 1017 30.03 846 24.98 -0.8 30.6 67 -6.2 20.8
19:25 1017 30.03 846 24.98 -1 30.2 66 -6.5 20.2
19:30 1017 30.03 846 24.98 -0.9 30.4 62 -7.2 19.1
19:35 1017 30.03 846 24.98 -0.4 31.3 64 -6.4 20.4
19:40 1017 30.03 846 24.98 -0.5 31 67 -5.9 21.4
19:45 1017 30.03 846 24.98 -1.2 29.9 70 -5.9 21.3
19:50 1017 30.03 846 24.98 -0.9 30.3 66 -6.4 20.4
19:55 1017 30.03 846 24.98 -0.8 30.5 66 -6.3 20.6
20:00 1016 30 846 24.98 -0.9 30.4 65 -6.7 20
20:05 1016 30 846 24.98 -0.7 30.7 64 -6.7 19.9
20:10 1016 30 846 24.98 -0.4 31.4 65 -6.2 20.8
20:15 1016 30 845 24.95 -0.2 31.7 59 -7.2 19.1
20:20 1016 30 846 24.98 0 32.1 64 -6 21.2
20:25 1016 30 845 24.95 -0.1 31.9 63 -6.3 20.6
20:30 1016 30 845 24.95 -0.1 31.8 61 -6.9 19.7
20:35 1016 30 845 24.95 -0.1 31.9 57 -7.7 18.1
20:40 1016 30 845 24.95 0.6 33.1 50 -8.6 16.5
20:45 1015 29.97 845 24.95 1.9 35.5 43 -9.3 15.3
20:50 1015 29.97 845 24.95 3 37.5 42 -8.6 16.5
20:55 1015 29.97 845 24.95 3 37.3 46 -7.4 18.6
21:00 1015 29.97 845 24.95 2.5 36.4 49 -7.1 19.1
21:05 1015 29.97 845 24.95 2.3 36.1 49 -7.3 18.8
21:10 1015 29.97 844 24.92 2.2 35.9 51 -7 19.4
21:15 1015 29.97 844 24.92 2.3 36.1 47 -8 17.6
21:20 1015 29.97 844 24.92 2.4 36.3 46 -8.2 17.3
21:25 1015 29.97 844 24.92 2.6 36.7 44 -8.5 16.7
21:30 1015 29.97 844 24.92 2.9 37.3 43 -8.4 17
21:35 1015 29.97 844 24.92 2.9 37.2 45 -7.9 17.8
21:40 1015 29.97 844 24.92 2.8 37.1 44 -8.3 17.1
21:45 1015 29.97 844 24.92 2.8 37.1 44 -8.2 17.2
21:50 1015 29.97 844 24.92 3 37.3 43 -8.5 16.6
21:55 1015 29.97 844 24.92 3.1 37.5 42 -8.5 16.6
22:00 1015 29.97 844 24.92 3.3 37.9 41 -8.7 16.4
22:05 1015 29.97 844 24.92 3.4 38.2 41 -8.7 16.3
22:10 1015 29.97 844 24.92 3.6 38.5 38 -9.5 15
22:15 1015 29.97 844 24.92 3.8 38.8 41 -8.2 17.2
22:20 1015 29.97 844 24.92 3.5 38.4 42 -8.2 17.3
22:25 1015 29.97 844 24.92 3.3 37.9 42 -8.5 16.7
22:30 1015 29.97 844 24.92 3.4 38.2 42 -8.3 17.1
22:35 1015 29.97 844 24.92 3.6 38.6 39 -8.9 15.9
22:40 1015 29.97 844 24.92 3.8 38.8 40 -8.6 16.5
22:45 1015 29.97 844 24.92 3.7 38.6 43 -7.8 18
22:50 1015 29.97 844 24.92 3.5 38.3 44 -7.7 18.1
22:55 1015 29.97 844 24.92 3.4 38.1 44 -7.8 18
23:00 1015 29.97 844 24.92 3.3 38 46 -7.2 19.1
23:05 1015 29.97 844 24.92 3.1 37.6 48 -6.9 19.6
23:10 1015 29.97 844 24.92 3 37.4 48 -7.1 19.3
23:15 1015 29.97 844 24.92 3 37.4 48 -7 19.4
23:20 1015 29.97 844 24.92 3 37.4 48 -6.8 19.7
23:25 1015 29.97 844 24.92 2.8 37.1 51 -6.4 20.4
23:30 1015 29.97 844 24.92 2.7 36.9 50 -6.6 20.1
23:35 1015 29.97 844 24.92 2.7 36.8 52 -6.1 21
23:40 1015 29.97 844 24.92 2.6 36.7 52 -6.4 20.5
23:45 1015 29.97 844 24.92 2.7 36.9 49 -7 19.4
23:50 1015 29.97 844 24.92 2.9 37.1 48 -7.1 19.2
23:55 1015 29.97 844 24.92 2.9 37.2 49 -6.8 19.7
24:00 1015 29.97 844 24.92 2.8 37 49 -6.9 19.6